createdAt,value
2023-04-09T00:00:13.799Z,10.68
2023-04-09T00:03:25.561Z,11.05
2023-04-09T00:06:43.445Z,11.23
2023-04-09T00:09:46.287Z,10.55
2023-04-09T00:12:49.757Z,11.02
2023-04-09T00:15:59.394Z,10.53
2023-04-09T00:19:12.086Z,10.07
2023-04-09T00:22:16.615Z,10.73
2023-04-09T00:25:28.529Z,10.43
2023-04-09T00:28:37.050Z,10.55
2023-04-09T00:31:50.257Z,10.77
2023-04-09T00:34:55.405Z,10.38
2023-04-09T00:38:01.365Z,10.80
2023-04-09T00:41:06.712Z,11.00
2023-04-09T00:44:11.426Z,10.82
2023-04-09T00:47:16.073Z,12.33
2023-04-09T00:50:30.302Z,11.88
2023-04-09T00:53:35.780Z,11.18
2023-04-09T00:56:41.740Z,11.10
2023-04-09T00:59:47.105Z,11.48
2023-04-09T01:02:54.060Z,11.60
2023-04-09T01:06:47.147Z,11.63
2023-04-09T01:10:38.195Z,11.37
2023-04-09T01:14:08.447Z,11.20
2023-04-09T01:17:47.187Z,12.20
2023-04-09T01:21:27.567Z,11.33
2023-04-09T01:28:39.396Z,11.93
2023-04-09T01:31:47.759Z,12.05
2023-04-09T01:34:53.051Z,11.93
2023-04-09T01:38:05.723Z,12.50
2023-04-09T01:41:19.740Z,12.88
2023-04-09T01:44:26.950Z,12.53
2023-04-09T01:47:38.874Z,12.80
2023-04-09T01:50:45.072Z,13.40
2023-04-09T01:53:50.742Z,12.93
2023-04-09T01:56:53.170Z,13.65
2023-04-09T01:59:57.735Z,12.70
2023-04-09T02:03:19.161Z,12.70
2023-04-09T02:10:21.354Z,12.15
2023-04-09T02:13:50.254Z,13.27
2023-04-09T02:16:54.842Z,12.97
2023-04-09T02:19:57.499Z,13.73
2023-04-09T02:23:01.590Z,14.30
2023-04-09T02:26:07.003Z,13.90
2023-04-09T02:29:11.276Z,14.35
2023-04-09T02:32:14.918Z,14.10
2023-04-09T02:35:18.255Z,14.13
2023-04-09T02:38:25.895Z,13.40
2023-04-09T02:41:30.425Z,13.23
2023-04-09T02:44:42.287Z,13.75
2023-04-09T02:47:47.882Z,13.20
2023-04-09T02:50:52.216Z,12.80
2023-04-09T02:53:58.077Z,12.60
2023-04-09T02:57:01.279Z,12.80
2023-04-09T03:00:06.282Z,12.65
2023-04-09T03:03:19.485Z,12.88
2023-04-09T03:06:25.638Z,12.88
2023-04-09T03:09:30.308Z,13.15
2023-04-09T03:12:34.419Z,12.98
2023-04-09T03:15:46.029Z,13.18
2023-04-09T03:18:58.189Z,12.60
2023-04-09T03:22:03.450Z,13.40
2023-04-09T03:25:10.351Z,13.00
2023-04-09T03:28:16.185Z,12.20
2023-04-09T03:31:30.032Z,13.15
2023-04-09T03:34:34.066Z,13.40
2023-04-09T03:37:39.084Z,13.65
2023-04-09T03:44:28.642Z,12.73
2023-04-09T03:47:39.816Z,12.63
2023-04-09T03:50:47.346Z,11.97
2023-04-09T03:54:00.779Z,12.93
2023-04-09T03:57:05.333Z,12.98
2023-04-09T04:00:18.431Z,13.10
2023-04-09T04:03:51.251Z,13.38
2023-04-09T04:07:01.536Z,11.85
2023-04-09T04:10:16.994Z,13.30
2023-04-09T04:13:32.142Z,12.38
2023-04-09T04:16:39.849Z,13.18
2023-04-09T04:19:52.366Z,12.85
2023-04-09T04:23:06.481Z,13.10
2023-04-09T04:26:14.042Z,13.25
2023-04-09T04:29:17.248Z,13.50
2023-04-09T04:32:37.480Z,13.13
2023-04-09T04:35:48.700Z,13.23
2023-04-09T04:39:34.301Z,12.90
2023-04-09T04:42:57.667Z,13.57
2023-04-09T04:46:03.648Z,12.55
2023-04-09T04:49:10.724Z,13.57
2023-04-09T04:52:23.664Z,13.55
2023-04-09T04:55:31.007Z,13.57
2023-04-09T04:58:45.502Z,13.05
2023-04-09T05:01:54.547Z,12.82
2023-04-09T05:04:57.193Z,13.97
2023-04-09T05:08:10.135Z,12.95
2023-04-09T05:11:16.928Z,13.02
2023-04-09T05:14:26.425Z,13.25
2023-04-09T05:17:30.228Z,13.20
2023-04-09T05:20:35.017Z,13.82
2023-04-09T05:23:45.331Z,13.50
2023-04-09T05:30:13.289Z,14.65
2023-04-09T05:33:30.339Z,14.32
2023-04-09T05:36:35.716Z,14.37
2023-04-09T05:39:43.230Z,13.38
2023-04-09T05:42:50.115Z,14.52
2023-04-09T05:46:04.125Z,14.68
2023-04-09T05:49:09.931Z,14.90
2023-04-09T05:52:25.129Z,16.25
2023-04-09T05:55:39.809Z,16.27
2023-04-09T05:58:47.048Z,18.53
2023-04-09T06:01:53.095Z,16.67
2023-04-09T06:05:01.024Z,16.23
2023-04-09T06:08:06.315Z,16.73
2023-04-09T06:11:20.510Z,17.58
2023-04-09T06:14:25.323Z,17.65
2023-04-09T06:17:34.566Z,17.58
2023-04-09T06:20:51.354Z,16.67
2023-04-09T06:23:57.127Z,17.75
2023-04-09T06:27:04.016Z,17.13
2023-04-09T06:30:08.249Z,17.17
2023-04-09T06:33:15.088Z,17.35
2023-04-09T06:36:20.433Z,16.08
2023-04-09T06:39:31.564Z,16.13
2023-04-09T06:42:34.965Z,15.80
2023-04-09T06:45:51.533Z,15.75
2023-04-09T06:48:54.823Z,15.85
2023-04-09T06:51:56.989Z,15.68
2023-04-09T06:55:02.647Z,15.75
2023-04-09T06:58:08.315Z,16.25
2023-04-09T07:01:20.464Z,15.03
2023-04-09T07:04:24.155Z,16.20
2023-04-09T07:07:36.255Z,15.80
2023-04-09T07:10:53.280Z,15.43
2023-04-09T07:14:04.645Z,15.27
2023-04-09T07:17:10.270Z,15.20
2023-04-09T07:20:14.209Z,15.00
2023-04-09T07:23:20.555Z,13.77
2023-04-09T07:26:23.609Z,13.88
2023-04-09T07:29:35.564Z,13.98
2023-04-09T07:32:40.336Z,13.87
2023-04-09T07:35:45.747Z,14.43
2023-04-09T07:38:50.109Z,14.20
2023-04-09T07:41:56.473Z,14.30
2023-04-09T07:44:58.697Z,14.38
2023-04-09T07:48:04.256Z,14.10
2023-04-09T07:51:12.155Z,13.52
2023-04-09T07:54:18.614Z,13.48
2023-04-09T07:57:31.055Z,14.10
2023-04-09T08:00:44.058Z,11.07
2023-04-09T08:07:11.234Z,10.30
2023-04-09T08:10:25.488Z,10.85
2023-04-09T08:13:30.855Z,11.43
2023-04-09T08:16:42.348Z,10.75
2023-04-09T08:19:48.392Z,10.73
2023-04-09T08:22:54.527Z,10.57
2023-04-09T08:26:09.112Z,9.18
2023-04-09T08:29:14.406Z,8.40
2023-04-09T08:32:19.472Z,8.55
2023-04-09T08:35:21.538Z,7.97
2023-04-09T08:38:23.618Z,8.80
2023-04-09T08:41:48.541Z,8.40
2023-04-09T08:44:52.174Z,8.40
2023-04-09T08:47:54.108Z,8.90
2023-04-09T08:50:57.146Z,8.68
2023-04-09T08:54:08.710Z,8.02
2023-04-09T08:57:13.457Z,8.38
2023-04-09T09:00:18.073Z,8.38
2023-04-09T09:03:23.400Z,7.07
2023-04-09T09:06:35.638Z,6.67
2023-04-09T09:10:01.068Z,7.13
2023-04-09T09:13:28.919Z,7.35
2023-04-09T09:16:38.512Z,7.33
2023-04-09T09:19:40.770Z,7.75
2023-04-09T09:22:54.955Z,7.00
2023-04-09T09:25:57.444Z,7.55
2023-04-09T09:29:07.925Z,7.30
2023-04-09T09:32:16.247Z,8.15
2023-04-09T09:35:19.909Z,7.80
2023-04-09T09:38:25.893Z,7.63
2023-04-09T09:41:31.549Z,8.02
2023-04-09T09:44:34.701Z,7.80
2023-04-09T09:47:45.733Z,8.10
2023-04-09T09:54:11.771Z,7.78
2023-04-09T09:57:27.927Z,7.95
2023-04-09T10:00:36.438Z,7.80
2023-04-09T10:03:42.922Z,8.10
2023-04-09T10:06:49.272Z,8.35
2023-04-09T10:09:59.185Z,8.20
2023-04-09T10:13:00.841Z,8.57
2023-04-09T10:16:12.089Z,8.23
2023-04-09T10:19:16.146Z,8.10
2023-04-09T10:22:38.610Z,7.57
2023-04-09T10:25:44.952Z,7.47
2023-04-09T10:28:50.730Z,7.75
2023-04-09T10:32:15.761Z,7.60
2023-04-09T10:35:27.658Z,7.43
2023-04-09T10:38:51.202Z,7.78
2023-04-09T10:42:10.203Z,7.43
2023-04-09T10:45:22.921Z,7.80
2023-04-09T10:48:31.142Z,7.47
2023-04-09T10:51:42.324Z,7.30
2023-04-09T10:58:07.199Z,7.43
2023-04-09T11:01:23.909Z,7.32
2023-04-09T11:05:02.208Z,7.80
2023-04-09T11:08:18.034Z,7.93
2023-04-09T11:11:34.960Z,7.57
2023-04-09T11:14:40.546Z,7.63
2023-04-09T11:17:45.548Z,7.57
2023-04-09T11:20:50.801Z,7.35
2023-04-09T11:23:55.351Z,7.60
2023-04-09T11:27:00.480Z,7.10
2023-04-09T11:30:04.449Z,7.07
2023-04-09T11:33:19.162Z,6.57
2023-04-09T11:36:22.862Z,7.22
2023-04-09T11:39:34.733Z,7.50
2023-04-09T11:42:44.190Z,7.80
2023-04-09T11:45:51.578Z,7.50
2023-04-09T11:52:23.952Z,7.47
2023-04-09T11:55:36.264Z,7.57
2023-04-09T11:58:51.255Z,7.30
2023-04-09T12:02:15.650Z,6.75
2023-04-09T12:05:37.967Z,6.95
2023-04-09T12:09:03.824Z,7.25
2023-04-09T12:12:12.010Z,7.07
2023-04-09T12:15:39.347Z,6.40
2023-04-09T12:18:43.080Z,6.30
2023-04-09T12:21:59.793Z,7.40
2023-04-09T12:25:04.884Z,6.50
2023-04-09T12:28:19.417Z,7.28
2023-04-09T12:31:33.082Z,6.13
2023-04-09T12:34:46.498Z,6.32
2023-04-09T12:37:50.109Z,6.47
2023-04-09T12:40:54.927Z,6.80
2023-04-09T12:43:57.214Z,6.60
2023-04-09T12:47:01.709Z,7.10
2023-04-09T12:50:05.446Z,6.57
2023-04-09T12:53:18.304Z,7.17
2023-04-09T12:56:31.660Z,6.60
2023-04-09T12:59:34.557Z,6.70
2023-04-09T13:02:38.660Z,6.75
2023-04-09T13:05:44.845Z,6.63
2023-04-09T13:12:14.893Z,7.00
2023-04-09T13:15:21.362Z,6.63
2023-04-09T13:18:32.678Z,6.68
2023-04-09T13:21:47.732Z,7.20
2023-04-09T13:24:53.289Z,6.25
2023-04-09T13:31:23.712Z,5.90
2023-04-09T13:34:38.432Z,5.97
2023-04-09T13:37:48.134Z,5.93
2023-04-09T13:40:55.436Z,6.18
2023-04-09T13:44:04.398Z,7.55
2023-04-09T13:47:08.878Z,6.85
2023-04-09T13:50:14.957Z,6.60
2023-04-09T13:53:17.554Z,5.55
2023-04-09T13:56:28.934Z,6.88
2023-04-09T13:59:31.628Z,6.30
2023-04-09T14:02:36.534Z,6.10
2023-04-09T14:05:40.655Z,7.00
2023-04-09T14:08:52.093Z,6.50
2023-04-09T14:11:58.813Z,6.93
2023-04-09T14:15:03.440Z,6.40
2023-04-09T14:18:08.167Z,6.00
2023-04-09T14:21:13.066Z,4.97
2023-04-09T14:24:15.736Z,4.88
2023-04-09T14:27:20.739Z,5.88
2023-04-09T14:30:35.614Z,5.75
2023-04-09T14:33:41.785Z,5.70
2023-04-09T14:36:44.768Z,5.75
2023-04-09T14:39:48.571Z,5.53
2023-04-09T14:42:51.136Z,6.15
2023-04-09T14:45:59.876Z,6.20
2023-04-09T14:49:05.011Z,6.25
2023-04-09T14:52:13.986Z,7.05
2023-04-09T14:55:19.240Z,6.55
2023-04-09T14:58:24.639Z,6.28
2023-04-09T15:01:30.745Z,7.10
2023-04-09T15:04:44.933Z,7.07
2023-04-09T15:07:51.492Z,6.55
2023-04-09T15:11:02.910Z,6.43
2023-04-09T15:14:06.721Z,6.20
2023-04-09T15:17:18.256Z,6.50
2023-04-09T15:20:22.849Z,6.75
2023-04-09T15:23:28.894Z,6.63
2023-04-09T15:26:45.811Z,6.73
2023-04-09T15:33:09.714Z,6.78
2023-04-09T15:36:22.986Z,6.65
2023-04-09T15:39:36.642Z,7.30
2023-04-09T15:42:49.060Z,7.17
2023-04-09T15:45:55.165Z,6.75
2023-04-09T15:48:59.892Z,7.20
2023-04-09T15:52:04.722Z,7.00
2023-04-09T15:55:11.663Z,7.07
2023-04-09T15:58:15.883Z,6.57
2023-04-09T16:01:19.736Z,6.22
2023-04-09T16:04:25.025Z,6.20
2023-04-09T16:07:29.789Z,6.70
2023-04-09T16:13:51.900Z,6.20
2023-04-09T16:16:54.220Z,6.90
2023-04-09T16:20:06.914Z,6.50
2023-04-09T16:23:12.234Z,6.10
2023-04-09T16:26:19.817Z,6.10
2023-04-09T16:29:24.767Z,6.20
2023-04-09T16:32:35.878Z,5.78
2023-04-09T16:35:42.333Z,5.88
2023-04-09T16:38:54.690Z,5.93
2023-04-09T16:41:59.006Z,6.10
2023-04-09T16:45:09.041Z,6.47
2023-04-09T16:48:15.636Z,6.32
2023-04-09T16:51:28.896Z,5.75
2023-04-09T16:54:37.022Z,5.38
2023-04-09T16:57:42.199Z,5.65
2023-04-09T17:00:50.004Z,5.88
2023-04-09T17:03:56.594Z,5.78
2023-04-09T17:07:01.559Z,5.73
2023-04-09T17:10:07.041Z,5.88
2023-04-09T17:13:18.575Z,5.95
2023-04-09T17:16:24.173Z,5.88
2023-04-09T17:19:30.033Z,6.38
2023-04-09T17:22:35.420Z,6.68
2023-04-09T17:25:41.173Z,6.40
2023-04-09T17:28:50.118Z,6.10
2023-04-09T17:31:59.702Z,5.78
2023-04-09T17:35:17.372Z,5.47
2023-04-09T17:38:24.056Z,5.60
2023-04-09T17:41:35.048Z,5.73
2023-04-09T17:44:41.572Z,5.72
2023-04-09T17:51:14.298Z,6.20
2023-04-09T17:54:19.006Z,6.03
2023-04-09T17:57:23.233Z,6.10
2023-04-09T18:00:28.961Z,6.70
2023-04-09T18:03:35.076Z,6.25
2023-04-09T18:06:38.680Z,6.00
2023-04-09T18:09:45.653Z,7.07
2023-04-09T18:12:51.580Z,8.20
2023-04-09T18:15:53.792Z,7.50
2023-04-09T18:19:07.459Z,7.80
2023-04-09T18:22:19.461Z,7.55
2023-04-09T18:25:24.503Z,7.18
2023-04-09T18:28:33.173Z,7.85
2023-04-09T18:31:39.160Z,10.20
2023-04-09T18:34:45.133Z,15.38
2023-04-09T18:37:50.331Z,10.30
2023-04-09T18:40:56.713Z,8.98
2023-04-09T18:44:01.423Z,9.95
2023-04-09T18:47:06.108Z,10.43
2023-04-09T18:50:11.600Z,10.73
2023-04-09T18:53:23.937Z,10.32
2023-04-09T18:56:32.774Z,8.82
2023-04-09T18:59:38.233Z,8.05
2023-04-09T19:02:43.489Z,9.00
2023-04-09T19:05:48.806Z,9.20
2023-04-09T19:08:58.773Z,8.30
2023-04-09T19:12:08.645Z,8.82
2023-04-09T19:15:14.282Z,9.40
2023-04-09T19:18:19.280Z,9.80
2023-04-09T19:21:31.992Z,9.43
2023-04-09T19:24:37.279Z,9.52
2023-04-09T19:27:49.982Z,10.00
2023-04-09T19:30:53.099Z,10.55
2023-04-09T19:33:56.851Z,10.05
2023-04-09T19:37:02.735Z,9.90
2023-04-09T19:40:08.473Z,9.70
2023-04-09T19:43:13.864Z,9.63
2023-04-09T19:46:28.845Z,10.00
2023-04-09T19:49:34.258Z,9.03
2023-04-09T19:52:47.944Z,8.90
2023-04-09T19:55:53.897Z,7.93
2023-04-09T19:58:59.211Z,8.55
2023-04-09T20:02:03.495Z,7.82
2023-04-09T20:05:10.615Z,8.18
2023-04-09T20:08:16.227Z,7.47
2023-04-09T20:11:28.161Z,7.60
2023-04-09T20:14:40.128Z,8.25
2023-04-09T20:17:45.035Z,7.68
2023-04-09T20:20:51.179Z,7.37
2023-04-09T20:23:54.127Z,7.60
2023-04-09T20:26:56.327Z,7.28
2023-04-09T20:30:01.230Z,8.13
2023-04-09T20:33:06.235Z,7.57
2023-04-09T20:36:21.704Z,8.65
2023-04-09T20:39:29.786Z,8.40
2023-04-09T20:42:36.775Z,8.33
2023-04-09T20:45:47.840Z,8.07
2023-04-09T20:48:55.414Z,8.60
2023-04-09T20:52:05.023Z,8.83
2023-04-09T20:55:17.099Z,8.80
2023-04-09T20:58:22.319Z,8.30
2023-04-09T21:01:28.135Z,7.43
2023-04-09T21:04:33.648Z,7.72
2023-04-09T21:07:48.319Z,7.43
2023-04-09T21:10:53.411Z,7.65
2023-04-09T21:17:15.694Z,7.90
2023-04-09T21:20:21.347Z,8.20
2023-04-09T21:23:27.017Z,8.50
2023-04-09T21:26:53.378Z,9.02
2023-04-09T21:29:58.976Z,8.73
2023-04-09T21:33:06.084Z,8.35
2023-04-09T21:36:11.879Z,7.63
2023-04-09T21:39:17.101Z,8.13
2023-04-09T21:42:31.345Z,8.43
2023-04-09T21:45:38.217Z,8.10
2023-04-09T21:48:43.436Z,9.05
2023-04-09T21:51:55.567Z,8.23
2023-04-09T21:55:01.225Z,7.87
2023-04-09T21:58:08.244Z,7.85
2023-04-09T22:01:19.187Z,8.20
2023-04-09T22:04:34.297Z,7.78
2023-04-09T22:07:51.324Z,8.25
2023-04-09T22:11:02.981Z,9.05
2023-04-09T22:14:09.297Z,8.32
2023-04-09T22:17:23.072Z,8.30
2023-04-09T22:20:27.032Z,7.85
2023-04-09T22:23:32.107Z,7.82
2023-04-09T22:26:38.388Z,7.43
2023-04-09T22:29:50.997Z,8.05
2023-04-09T22:32:56.760Z,7.28
2023-04-09T22:36:07.679Z,7.47
2023-04-09T22:39:13.208Z,8.10
2023-04-09T22:42:18.791Z,8.18
2023-04-09T22:45:24.858Z,8.40
2023-04-09T22:48:44.141Z,9.27
2023-04-09T22:51:50.843Z,10.50
2023-04-09T22:54:57.214Z,10.57
2023-04-09T22:58:02.693Z,9.53
2023-04-09T23:01:12.868Z,8.88
2023-04-09T23:04:18.943Z,9.00
2023-04-09T23:07:26.769Z,9.02
2023-04-09T23:10:31.536Z,9.13
2023-04-09T23:13:42.322Z,8.73
2023-04-09T23:16:54.981Z,8.05
2023-04-09T23:19:57.313Z,7.83
2023-04-09T23:23:01.730Z,8.10
2023-04-09T23:26:27.163Z,8.15
2023-04-09T23:29:29.026Z,7.53
2023-04-09T23:32:40.795Z,7.72
2023-04-09T23:35:46.142Z,8.05
2023-04-09T23:38:52.193Z,7.80
2023-04-09T23:42:01.262Z,7.57
2023-04-09T23:45:14.899Z,8.43
2023-04-09T23:48:17.758Z,7.75
2023-04-09T23:51:22.763Z,7.90
2023-04-09T23:54:32.193Z,7.53
2023-04-09T23:57:45.540Z,8.00
